Meise, Belgium
Current Conditions -  °F | °C
As of 8:20 PM on Thursday 18 Dec 2014 (Local Time) from EBBR Reporting Station
Light Rain Light Rain  
Wind Chill: 12°   Ceiling: 1100
Heat Index: 12°   Visibility: 6mi
Dew Point: 10°   Wind: 25mph
Humidity: 88%   Direction: 240°WSW
Pressure: 29.94"   Gusts: 38mph
Location:  50.94°N, 4.33°E
Report Text: EBBR 181920Z 24022G33KT 9999 -RA FEW009 BKN011 12/10 Q1014 REDZRA NOSIG
Loading
Personal Weather Stations






























Interactive Weather Map New forecast layout! Learn more

10-Day Weather Forecast

Advertisements
Track Severe Weather on mobile